Terminal Aerodrome Forecast
Issued by NWS

Home | Current Version | Previous Version | Text Only | Print | Product List | Glossary On
Versions: 1 2 3 4 5 6 7 8 9 10 11 12
531
FTUS42 KTAE 251121
TAFDHN
TAF
KDHN 251121Z 2512/2612 VRB03KT P6SM FEW250
     FM251700 14007KT P6SM SCT040
     FM260200 17004KT P6SM SCT250=

USA.gov is the U.S. government's official web portal to all federal, state and local government web resources and services.